Time;durP1;ratioP1;P1;durP2;ratioP2;P2;SDS_P1;SDS_P2;PMS_P1;PMS_P2;Temp;Humidity;BMP_temperature;BMP_pressure;BME280_temperature;BME280_humidity;BME280_pressure;Samples;Min_cycle;Max_cycle;Signal;HPM_P1;HPM_P2
2022/05/01 03:28:44;;;;;;;;;;;;;;;7.37;100.00;100154.03;6330703;22;20292;-89
2022/05/01 03:31:10;;;;;;;;;;;;;;;7.39;100.00;100145.22;6310222;22;19931;-91
2022/05/01 03:33:36;;;;;;;;;;;;;;;7.41;100.00;100139.91;6310471;22;19934;-91
2022/05/01 03:36:04;;;;;;;;;;;;;;;7.41;100.00;100146.03;6337938;22;20317;-89
2022/05/01 03:38:29;;;;;;;;;;;;;;;7.43;100.00;100138.94;6310409;22;20242;-90
2022/05/01 03:40:54;;;;;;;;;;;;;;;7.45;100.00;100142.44;6310363;22;19911;-91
2022/05/01 03:43:20;;;;;;;;;;;;;;;7.46;100.00;100144.16;6309128;22;19999;-90
2022/05/01 03:45:45;;;;;;;;;;;;;;;7.51;100.00;100140.53;6310620;22;20000;-91
2022/05/01 03:48:11;;;;;;;;;;;;;;;7.52;100.00;100143.13;6338384;22;19915;-91
2022/05/01 03:50:37;;;;;;;;;;;;;;;7.53;100.00;100144.00;6310247;22;19945;-91
2022/05/01 03:53:04;;;;;;;;;;;;;;;7.55;100.00;100142.22;6337982;22;19914;-91
2022/05/01 03:55:30;;;;;;;;;;;;;;;7.44;100.00;100140.69;6310263;22;19933;-92
2022/05/01 03:57:55;;;;;;;;;;;;;;;6.80;100.00;100142.19;6308974;22;19975;-92
2022/05/01 04:00:21;;;;;;;;;;;;;;;6.43;100.00;100150.81;6310123;22;20299;-92
2022/05/01 04:02:46;;;;;;;;;;;;;;;6.25;100.00;100149.44;6337922;22;20318;-90
2022/05/01 04:05:12;;;;;;;;;;;;;;;6.17;100.00;100142.56;6310102;22;19946;-91
2022/05/01 04:07:38;;;;;;;;;;;;;;;6.04;100.00;100150.72;6338210;22;19948;-87
2022/05/01 04:10:04;;;;;;;;;;;;;;;5.98;99.40;100144.69;6310163;22;19914;-88
2022/05/01 04:12:29;;;;;;;;;;;;;;;6.03;99.67;100141.06;6336448;22;20223;-91
2022/05/01 04:14:56;;;;;;;;;;;;;;;6.11;100.00;100147.06;6310078;22;19975;-91
2022/05/01 04:17:22;;;;;;;;;;;;;;;6.02;100.00;100142.00;6338010;22;19917;-91
2022/05/01 04:19:48;;;;;;;;;;;;;;;5.92;100.00;100139.50;6310478;22;19911;-88
2022/05/01 04:22:13;;;;;;;;;;;;;;;5.83;99.96;100137.00;6338144;22;19919;-92
2022/05/01 04:24:38;;;;;;;;;;;;;;;5.79;99.67;100149.34;6310198;22;20334;-91
2022/05/01 04:27:06;;;;;;;;;;;;;;;5.74;99.46;100142.44;6336161;22;20291;-91
2022/05/01 04:29:38;;;;;;;;;;;;;;;5.71;99.63;100139.84;6337654;22;19992;-92
2022/05/01 04:32:05;;;;;;;;;;;;;;;5.70;99.44;100146.03;6310416;22;19911;-92
2022/05/01 04:34:30;;;;;;;;;;;;;;;5.57;98.95;100140.97;6310125;22;19921;-92
2022/05/01 04:36:57;;;;;;;;;;;;;;;5.55;99.05;100142.75;6337904;22;20288;-94
2022/05/01 04:39:23;;;;;;;;;;;;;;;5.48;98.70;100140.25;6310444;22;19914;-90
2022/05/01 04:41:48;;;;;;;;;;;;;;;5.47;98.89;100136.75;6336054;22;19914;-87
2022/05/01 04:44:13;;;;;;;;;;;;;;;5.41;98.59;100139.50;6309880;22;19917;-90
2022/05/01 07:57:38;;;;;;;;;;;;;;;4.03;88.00;100139.56;6333347;22;20079;-85
2022/05/01 08:00:04;;;;;;;;;;;;;;;4.13;88.29;100144.69;6306063;22;19923;-83
2022/05/01 08:02:34;;;;;;;;;;;;;;;4.11;88.58;100150.81;6310246;22;19925;-88
2022/05/01 08:04:59;;;;;;;;;;;;;;;4.05;88.58;100141.25;6304703;22;19914;-84
2022/05/01 08:07:24;;;;;;;;;;;;;;;4.07;88.62;100143.88;6295390;22;20047;-86
2022/05/01 08:09:50;;;;;;;;;;;;;;;4.10;88.50;100155.22;6335133;22;20412;-86
2022/05/01 08:12:15;;;;;;;;;;;;;;;4.00;88.49;100151.81;6323464;22;19911;-84
2022/05/01 08:14:41;;;;;;;;;;;;;;;4.11;88.89;100154.31;6335244;22;19917;-84
2022/05/01 08:17:07;;;;;;;;;;;;;;;4.12;88.39;100142.09;6307842;22;19910;-85
2022/05/01 08:22:17;;;;;;;;;;;;;;;4.05;88.39;100150.88;6336098;22;19918;-81
2022/05/01 08:24:43;;;;;;;;;;;;;;;4.13;88.54;100155.19;6337576;22;19915;-86
2022/05/01 08:27:08;;;;;;;;;;;;;;;4.06;88.40;100152.63;6307282;22;19918;-83
2022/05/01 08:29:34;;;;;;;;;;;;;;;4.11;88.30;100151.69;6309583;22;19921;-86
2022/05/01 08:32:00;;;;;;;;;;;;;;;4.10;88.51;100152.59;6309020;22;19922;-87
2022/05/01 08:34:25;;;;;;;;;;;;;;;4.07;88.60;100149.09;6307803;22;19910;-84
2022/05/01 08:36:50;;;;;;;;;;;;;;;4.08;88.78;100146.47;6300153;22;20405;-91
2022/05/01 08:39:16;;;;;;;;;;;;;;;4.07;88.66;100144.75;6337029;22;19917;-87
2022/05/01 08:41:41;;;;;;;;;;;;;;;4.08;88.61;100151.72;6308453;22;19949;-86
2022/05/01 08:44:11;;;;;;;;;;;;;;;4.08;88.35;100138.59;6309122;22;20314;-86
2022/05/01 08:46:36;;;;;;;;;;;;;;;4.13;88.35;100147.31;6311721;22;19999;-94
2022/05/01 08:49:05;;;;;;;;;;;;;;;4.14;88.04;100142.94;6339049;22;19911;-89
2022/05/01 08:51:33;;;;;;;;;;;;;;;4.07;88.10;100146.47;6339012;22;20319;-85
2022/05/01 08:53:59;;;;;;;;;;;;;;;4.08;88.05;100146.47;6311546;22;19910;-85
2022/05/01 08:56:25;;;;;;;;;;;;;;;4.07;88.13;100157.88;6310593;22;19920;-84
2022/05/01 08:58:51;;;;;;;;;;;;;;;4.08;88.16;100148.22;6309176;22;19922;-88
2022/05/01 09:01:17;;;;;;;;;;;;;;;4.04;87.92;100154.38;6310086;22;19914;-92
2022/05/01 09:03:43;;;;;;;;;;;;;;;4.07;88.32;100155.25;6312717;22;19928;-87
2022/05/01 09:06:08;;;;;;;;;;;;;;;4.07;88.39;100159.59;6311535;22;19992;-82
2022/05/01 09:08:36;;;;;;;;;;;;;;;4.07;88.15;100152.63;6337863;22;19915;-85
2022/05/01 09:12:49;;;;;;;;;;;;;;;4.07;87.76;100152.63;6310728;22;19936;-85
